createdAt,value
2018-06-09T14:24:44.714Z,55.08
2018-06-09T14:27:13.815Z,55.98
2018-06-09T14:29:43.221Z,54.03
2018-06-09T14:32:12.690Z,53.23
2018-06-09T14:34:41.993Z,54.36
2018-06-09T14:37:11.257Z,54.30
2018-06-09T14:39:40.327Z,54.45
2018-06-09T14:42:09.469Z,53.94
2018-06-09T14:44:38.637Z,54.39
2018-06-09T14:47:07.822Z,53.74
2018-06-09T14:49:37.107Z,52.58
2018-06-09T14:52:06.310Z,52.99
2018-06-09T14:54:35.447Z,53.18
2018-06-09T14:57:04.609Z,52.96
2018-06-09T14:59:37.786Z,52.25
2018-06-09T15:02:06.877Z,50.79
2018-06-09T15:04:37.103Z,48.79
2018-06-09T15:07:07.129Z,48.42
2018-06-09T15:09:36.242Z,47.97
2018-06-09T15:12:05.382Z,46.08
2018-06-09T15:14:34.664Z,46.47
2018-06-09T15:17:03.885Z,47.93
2018-06-09T15:19:33.041Z,48.92
2018-06-09T15:22:02.181Z,51.29
2018-06-09T15:24:31.310Z,51.86
2018-06-09T15:27:00.405Z,51.62
2018-06-09T15:29:29.711Z,53.10
2018-06-09T15:31:59.562Z,52.01
2018-06-09T15:34:28.655Z,52.71
2018-06-09T15:36:57.817Z,53.28
2018-06-09T15:39:27.011Z,53.68
2018-06-09T15:41:56.124Z,54.59
2018-06-09T15:44:25.546Z,55.50
2018-06-09T15:46:54.753Z,55.40
2018-06-09T15:49:23.845Z,56.00
2018-06-09T15:51:53.029Z,56.19
2018-06-09T15:54:22.187Z,56.93
2018-06-09T15:56:51.472Z,57.05
2018-06-09T15:59:20.819Z,56.44
2018-06-09T16:01:49.914Z,55.69
2018-06-09T16:04:19.703Z,55.43
2018-06-09T16:06:49.765Z,55.23
2018-06-09T16:09:18.947Z,53.70
2018-06-09T16:11:48.141Z,53.36
2018-06-09T16:14:17.345Z,53.09
2018-06-09T16:16:47.245Z,54.67
2018-06-09T16:19:16.612Z,55.18
2018-06-09T16:21:45.756Z,54.44
2018-06-09T16:24:14.994Z,54.70
2018-06-09T16:26:44.239Z,55.05
2018-06-09T16:29:13.560Z,55.63
2018-06-09T16:31:42.745Z,55.80
2018-06-09T16:34:11.823Z,56.19
2018-06-09T16:36:41.037Z,55.47
2018-06-09T16:39:10.557Z,56.16
2018-06-09T16:41:40.874Z,57.05
2018-06-09T16:44:10.392Z,56.90
2018-06-09T16:46:39.666Z,58.45
2018-06-09T16:49:08.787Z,59.29
2018-06-09T16:51:38.073Z,60.36
2018-06-09T16:54:07.148Z,60.02
2018-06-09T16:56:36.731Z,61.19
2018-06-09T16:59:05.967Z,63.33
2018-06-09T17:01:35.399Z,64.01
2018-06-09T17:04:04.654Z,63.05
2018-06-09T17:06:33.777Z,64.02
2018-06-09T17:09:02.969Z,64.50
2018-06-09T17:11:32.870Z,64.81
2018-06-09T17:14:02.453Z,64.65
2018-06-09T17:16:31.699Z,65.09
2018-06-09T17:19:03.301Z,63.92
2018-06-09T17:21:32.574Z,63.58
2018-06-09T17:24:01.816Z,63.90
2018-06-09T17:26:30.936Z,63.28
2018-06-09T17:29:00.152Z,63.03
2018-06-09T17:31:29.221Z,62.87
2018-06-09T17:33:58.346Z,63.75
2018-06-09T17:36:27.525Z,65.77
2018-06-09T17:38:57.227Z,65.01
2018-06-09T17:41:27.413Z,65.71
2018-06-09T17:43:56.653Z,65.97
2018-06-09T17:46:25.775Z,65.29
2018-06-09T17:48:54.834Z,66.27
2018-06-09T17:51:24.027Z,65.91
2018-06-09T17:53:53.241Z,65.68
2018-06-09T17:56:22.434Z,66.71
2018-06-09T17:58:51.635Z,66.27
2018-06-09T18:01:20.924Z,67.18
2018-06-09T18:03:50.257Z,66.41
2018-06-09T18:06:19.646Z,66.82
2018-06-09T18:08:48.823Z,67.94
2018-06-09T18:11:18.074Z,67.42
2018-06-09T18:13:47.253Z,68.03
2018-06-09T18:16:16.629Z,68.08
2018-06-09T18:18:45.955Z,68.03
2018-06-09T18:21:15.233Z,67.24
2018-06-09T18:23:44.473Z,66.63
2018-06-09T18:26:13.589Z,65.21
2018-06-09T18:28:42.721Z,64.05
2018-06-09T18:31:11.877Z,66.11
2018-06-09T18:33:41.127Z,69.50
2018-06-09T18:36:10.199Z,70.30
2018-06-09T18:38:39.415Z,71.39
2018-06-09T18:41:08.509Z,72.69
2018-06-09T18:43:37.672Z,73.33
2018-06-09T18:46:06.853Z,71.78
2018-06-09T18:48:35.982Z,72.51
2018-06-09T18:51:05.126Z,72.53
2018-06-09T18:53:34.332Z,72.04
2018-06-09T18:56:03.518Z,73.21
2018-06-09T18:58:32.675Z,72.24
2018-06-09T19:01:01.784Z,72.32
2018-06-09T19:03:30.909Z,71.74
2018-06-09T19:05:59.970Z,71.66
2018-06-09T19:08:29.138Z,69.55
2018-06-09T19:10:58.236Z,70.34
2018-06-09T19:13:27.466Z,69.73
2018-06-09T19:15:56.767Z,68.50
2018-06-09T19:18:26.172Z,67.04
2018-06-09T19:20:55.402Z,66.23
2018-06-09T19:23:25.813Z,66.30
2018-06-09T19:25:55.134Z,67.11
2018-06-09T19:28:24.286Z,65.66
2018-06-09T19:30:54.547Z,65.75
2018-06-09T19:33:23.748Z,66.41
2018-06-09T19:35:52.799Z,66.63
2018-06-09T19:38:21.858Z,65.34
2018-06-09T19:40:50.989Z,67.42
2018-06-09T19:43:20.151Z,68.11
2018-06-09T19:45:53.959Z,68.06
2018-06-09T19:48:23.045Z,67.43
2018-06-09T19:50:52.240Z,67.60
2018-06-09T19:53:21.325Z,69.07
2018-06-09T19:55:50.483Z,69.48
2018-06-09T19:58:20.038Z,69.97
2018-06-09T20:00:49.101Z,71.12
2018-06-09T20:03:18.271Z,71.33
2018-06-09T20:05:47.281Z,70.80
2018-06-09T20:08:16.438Z,70.62
2018-06-09T20:10:45.567Z,68.96
2018-06-09T20:13:14.743Z,70.24
2018-06-09T20:15:43.907Z,69.28
2018-06-09T20:18:13.230Z,69.13
2018-06-09T20:20:43.003Z,69.39
2018-06-09T20:23:12.187Z,69.74
2018-06-09T20:25:42.018Z,70.45
2018-06-09T20:28:11.342Z,70.73
2018-06-09T20:30:40.422Z,69.10
2018-06-09T20:33:09.507Z,69.94
2018-06-09T20:35:38.729Z,69.65
2018-06-09T20:38:07.874Z,69.21
2018-06-09T20:40:37.295Z,69.98
2018-06-09T20:43:06.417Z,69.26
2018-06-09T20:45:35.824Z,68.56
2018-06-09T20:48:05.470Z,69.52
2018-06-09T20:50:34.660Z,70.44
2018-06-09T20:53:03.746Z,71.30
2018-06-09T20:55:32.866Z,71.03
2018-06-09T20:58:02.002Z,71.33
2018-06-09T21:00:31.162Z,70.57
2018-06-09T21:03:00.739Z,71.22
2018-06-09T21:05:29.915Z,71.74
2018-06-09T21:07:59.471Z,69.82
2018-06-09T21:10:28.687Z,69.81
2018-06-09T21:12:57.853Z,70.16
2018-06-09T21:15:27.188Z,70.56
2018-06-09T21:17:56.274Z,71.42
2018-06-09T21:20:25.386Z,71.71
2018-06-09T21:22:54.500Z,71.23
2018-06-09T21:25:23.591Z,70.53
2018-06-09T21:28:16.882Z,70.90
2018-06-09T21:30:50.294Z,71.70
2018-06-09T21:33:31.323Z,72.13
2018-06-09T21:36:05.796Z,73.59
2018-06-09T21:38:39.037Z,73.34
2018-06-09T21:41:13.538Z,73.69
2018-06-09T21:43:47.824Z,72.94
2018-06-09T21:46:22.755Z,72.58
2018-06-09T21:48:52.208Z,73.52
2018-06-09T21:51:21.293Z,72.73
2018-06-09T21:53:50.383Z,72.48
2018-06-09T21:56:19.520Z,72.50
2018-06-09T21:58:48.745Z,71.68
2018-06-09T22:01:17.975Z,72.64
2018-06-09T22:03:47.130Z,72.17
2018-06-09T22:06:16.191Z,71.45
2018-06-09T22:08:45.281Z,70.81
2018-06-09T22:11:14.416Z,70.65
2018-06-09T22:13:43.754Z,70.39
2018-06-09T22:16:12.891Z,71.66
2018-06-09T22:18:42.012Z,72.16
2018-06-09T22:21:11.078Z,73.01
2018-06-09T22:23:40.247Z,72.65
2018-06-09T22:26:11.606Z,73.32
2018-06-09T22:28:40.711Z,72.84
2018-06-09T22:31:09.761Z,72.88
2018-06-09T22:33:39.211Z,72.85
2018-06-09T22:36:08.292Z,72.93
2018-06-09T22:38:37.401Z,74.14
2018-06-09T22:41:06.549Z,73.70
2018-06-09T22:43:35.739Z,74.29
2018-06-09T22:46:04.822Z,73.98
2018-06-09T22:48:33.932Z,75.35
2018-06-09T22:51:03.113Z,73.99
2018-06-09T22:53:32.149Z,73.57
2018-06-09T22:56:02.351Z,73.36
2018-06-09T22:58:31.529Z,73.64
2018-06-09T23:01:00.697Z,74.40
2018-06-09T23:03:29.826Z,74.38
2018-06-09T23:05:59.022Z,73.43
2018-06-09T23:08:28.137Z,73.44
2018-06-09T23:10:57.363Z,73.45
2018-06-09T23:13:26.463Z,73.25
2018-06-09T23:15:55.651Z,73.40
2018-06-09T23:18:24.816Z,73.92
2018-06-09T23:20:54.042Z,72.83
2018-06-09T23:23:23.167Z,72.46
2018-06-09T23:25:52.862Z,72.42
2018-06-09T23:28:22.081Z,73.21
2018-06-09T23:30:51.163Z,73.39
2018-06-09T23:33:20.298Z,73.67
2018-06-09T23:35:50.191Z,73.72
2018-06-09T23:38:19.382Z,73.55
2018-06-09T23:40:53.219Z,74.67
2018-06-09T23:43:22.458Z,74.13
2018-06-09T23:45:51.616Z,74.59
2018-06-09T23:48:20.693Z,74.84
2018-06-09T23:50:49.815Z,74.95
2018-06-09T23:53:18.978Z,75.03
2018-06-09T23:55:48.176Z,74.48
2018-06-09T23:58:17.362Z,74.74
